createdAt,value
2018-09-06T00:01:43.485Z,18.50
2018-09-06T00:04:11.440Z,18.50
2018-09-06T00:06:39.316Z,18.50
2018-09-06T00:09:08.030Z,18.50
2018-09-06T00:11:35.938Z,18.50
2018-09-06T00:14:04.039Z,18.50
2018-09-06T00:16:31.897Z,18.50
2018-09-06T00:18:59.733Z,18.50
2018-09-06T00:21:27.605Z,18.50
2018-09-06T00:23:55.416Z,18.50
2018-09-06T00:26:23.205Z,18.50
2018-09-06T00:28:51.081Z,18.50
2018-09-06T00:31:18.930Z,18.50
2018-09-06T00:33:47.139Z,18.30
2018-09-06T00:36:15.015Z,18.30
2018-09-06T00:38:42.832Z,18.20
2018-09-06T00:41:11.127Z,18.20
2018-09-06T00:43:39.020Z,18.20
2018-09-06T00:46:07.143Z,18.20
2018-09-06T00:48:35.046Z,18.20
2018-09-06T00:51:03.000Z,18.20
2018-09-06T00:53:30.939Z,18.10
2018-09-06T00:55:58.891Z,18.10
2018-09-06T00:58:26.743Z,18.20
2018-09-06T01:00:54.708Z,18.20
2018-09-06T01:03:22.589Z,18.20
2018-09-06T01:05:50.472Z,18.20
2018-09-06T01:08:18.341Z,18.30
2018-09-06T01:10:46.207Z,18.30
2018-09-06T01:13:14.097Z,18.30
2018-09-06T01:15:41.960Z,18.30
2018-09-06T01:18:10.032Z,18.20
2018-09-06T01:20:37.851Z,18.20
2018-09-06T01:23:05.999Z,18.20
2018-09-06T01:25:39.697Z,18.10
2018-09-06T01:28:07.653Z,18.10
2018-09-06T01:30:35.511Z,18.00
2018-09-06T01:33:03.955Z,18.00
2018-09-06T01:35:31.980Z,18.10
2018-09-06T01:37:59.921Z,18.10
2018-09-06T01:40:28.175Z,18.10
2018-09-06T01:42:56.025Z,18.10
2018-09-06T01:45:23.939Z,18.20
2018-09-06T01:47:52.173Z,18.20
2018-09-06T01:50:20.111Z,18.20
2018-09-06T01:52:48.081Z,18.20
2018-09-06T01:55:15.979Z,18.40
2018-09-06T01:57:43.889Z,18.40
2018-09-06T02:00:11.848Z,18.40
2018-09-06T02:02:39.821Z,18.40
2018-09-06T02:05:07.924Z,18.40
2018-09-06T02:07:35.790Z,18.40
2018-09-06T02:10:03.784Z,18.40
2018-09-06T02:12:31.677Z,18.40
2018-09-06T02:14:59.621Z,18.40
2018-09-06T02:17:27.787Z,18.40
2018-09-06T02:19:55.662Z,18.40
2018-09-06T02:22:23.631Z,18.40
2018-09-06T02:24:51.570Z,18.40
2018-09-06T02:27:19.470Z,18.40
2018-09-06T02:29:47.340Z,18.40
2018-09-06T02:32:15.282Z,18.40
2018-09-06T02:34:43.256Z,18.30
2018-09-06T02:37:11.203Z,18.20
2018-09-06T02:39:39.539Z,18.10
2018-09-06T02:42:07.555Z,18.20
2018-09-06T02:44:35.427Z,18.10
2018-09-06T02:47:03.603Z,18.10
2018-09-06T02:51:42.935Z,18.00
2018-09-06T02:54:10.950Z,18.00
2018-09-06T02:56:38.803Z,17.90
2018-09-06T02:59:06.784Z,18.00
2018-09-06T03:01:34.613Z,17.90
2018-09-06T03:04:02.665Z,17.80
2018-09-06T03:06:30.688Z,17.80
2018-09-06T03:08:59.108Z,17.90
2018-09-06T03:12:01.374Z,17.80
2018-09-06T03:14:29.640Z,17.80
2018-09-06T03:16:57.745Z,17.80
2018-09-06T03:19:25.698Z,17.80
2018-09-06T03:21:53.619Z,17.80
2018-09-06T03:24:21.445Z,17.80
2018-09-06T03:26:49.317Z,17.80
2018-09-06T03:29:17.098Z,17.70
2018-09-06T03:31:44.923Z,17.70
2018-09-06T03:34:12.779Z,17.70
2018-09-06T03:36:40.613Z,17.70
2018-09-06T03:39:11.477Z,17.70
2018-09-06T03:41:39.481Z,17.70
2018-09-06T03:44:07.412Z,17.70
2018-09-06T03:46:35.321Z,17.70
2018-09-06T03:49:04.318Z,17.80
2018-09-06T03:51:32.568Z,17.80
2018-09-06T03:54:00.544Z,17.80
2018-09-06T03:56:28.441Z,17.80
2018-09-06T03:58:56.382Z,17.80
2018-09-06T04:01:24.278Z,17.80
2018-09-06T04:03:52.191Z,17.80
2018-09-06T04:06:20.001Z,17.80
2018-09-06T04:08:47.860Z,17.70
2018-09-06T04:11:15.704Z,17.70
2018-09-06T04:13:43.506Z,17.70
2018-09-06T04:16:11.344Z,17.70
2018-09-06T04:18:39.677Z,17.80
2018-09-06T04:21:07.971Z,17.80
2018-09-06T04:23:35.915Z,17.90
2018-09-06T04:26:03.952Z,17.90
2018-09-06T04:28:31.724Z,17.90
2018-09-06T04:30:59.606Z,17.90
2018-09-06T04:33:27.456Z,17.80
2018-09-06T04:35:55.836Z,17.80
2018-09-06T04:38:23.745Z,17.80
2018-09-06T04:40:51.640Z,17.80
2018-09-06T04:43:19.606Z,17.80
2018-09-06T04:45:47.650Z,17.90
2018-09-06T04:48:15.589Z,17.80
2018-09-06T04:50:43.819Z,17.90
2018-09-06T04:53:11.701Z,17.90
2018-09-06T04:55:39.653Z,17.90
2018-09-06T04:58:08.070Z,17.90
2018-09-06T05:00:36.037Z,17.90
2018-09-06T05:03:04.034Z,17.90
2018-09-06T05:05:31.912Z,17.90
2018-09-06T05:07:59.712Z,17.90
2018-09-06T05:10:27.594Z,18.00
2018-09-06T05:12:55.401Z,17.90
2018-09-06T05:15:23.418Z,18.00
2018-09-06T05:17:51.268Z,18.00
2018-09-06T05:20:19.552Z,18.00
2018-09-06T05:22:47.476Z,18.00
2018-09-06T05:25:15.459Z,18.00
2018-09-06T05:27:43.827Z,17.90
2018-09-06T05:30:11.876Z,17.80
2018-09-06T05:32:39.814Z,17.90
2018-09-06T05:35:07.820Z,17.90
2018-09-06T05:37:35.753Z,17.90
2018-09-06T05:40:03.786Z,18.00
2018-09-06T05:42:31.694Z,18.00
2018-09-06T05:44:59.578Z,18.00
2018-09-06T05:47:27.555Z,18.00
2018-09-06T05:49:55.718Z,18.00
2018-09-06T05:52:23.695Z,18.00
2018-09-06T05:54:51.581Z,18.00
2018-09-06T05:57:19.718Z,18.00
2018-09-06T05:59:47.849Z,18.10
2018-09-06T06:02:15.790Z,18.10
2018-09-06T06:04:43.712Z,18.10
2018-09-06T06:07:11.569Z,18.10
2018-09-06T06:09:39.387Z,18.20
2018-09-06T06:12:07.228Z,18.30
2018-09-06T06:14:35.134Z,18.30
2018-09-06T06:17:02.932Z,18.40
2018-09-06T06:19:31.135Z,18.40
2018-09-06T06:21:59.152Z,18.40
2018-09-06T06:24:27.226Z,18.40
2018-09-06T06:26:55.578Z,18.40
2018-09-06T06:29:23.600Z,18.50
2018-09-06T06:31:51.793Z,18.50
2018-09-06T06:34:19.896Z,18.60
2018-09-06T06:36:47.794Z,18.60
2018-09-06T06:39:15.746Z,18.60
2018-09-06T06:41:43.932Z,18.60
2018-09-06T06:44:11.803Z,18.60
2018-09-06T06:46:39.775Z,18.60
2018-09-06T06:49:08.207Z,18.60
2018-09-06T06:51:36.107Z,18.60
2018-09-06T06:54:04.044Z,18.60
2018-09-06T06:56:32.425Z,18.70
2018-09-06T06:59:00.346Z,18.70
2018-09-06T07:01:28.281Z,18.60
2018-09-06T07:03:56.446Z,18.60
2018-09-06T07:06:24.358Z,18.60
2018-09-06T07:08:52.250Z,18.70
2018-09-06T07:11:20.680Z,18.60
2018-09-06T07:13:48.722Z,18.60
2018-09-06T07:16:16.900Z,18.70
2018-09-06T07:18:45.138Z,18.70
2018-09-06T07:21:12.974Z,18.70
2018-09-06T07:23:40.894Z,18.70
2018-09-06T07:26:08.862Z,18.70
2018-09-06T07:28:36.676Z,18.80
2018-09-06T07:31:04.658Z,18.90
2018-09-06T07:33:32.907Z,19.00
2018-09-06T07:36:00.735Z,19.20
2018-09-06T07:38:28.553Z,19.30
2018-09-06T07:40:56.386Z,19.40
2018-09-06T07:43:24.269Z,19.40
2018-09-06T07:45:52.112Z,19.40
2018-09-06T07:48:20.160Z,19.40
2018-09-06T07:50:47.960Z,19.30
2018-09-06T07:53:15.782Z,19.40
2018-09-06T07:55:43.888Z,19.40
2018-09-06T07:58:11.728Z,19.50
2018-09-06T08:00:40.652Z,19.50
2018-09-06T08:03:09.184Z,19.50
2018-09-06T08:05:37.147Z,19.50
2018-09-06T08:08:05.012Z,19.40
2018-09-06T08:10:32.978Z,19.40
2018-09-06T08:13:00.908Z,19.40
2018-09-06T08:15:28.757Z,19.50
2018-09-06T08:17:56.649Z,19.70
2018-09-06T08:20:24.708Z,19.90
2018-09-06T08:22:52.624Z,20.00
2018-09-06T08:25:20.573Z,20.00
2018-09-06T08:27:48.491Z,20.00
2018-09-06T08:30:16.412Z,19.90
2018-09-06T08:32:44.512Z,20.00
2018-09-06T08:35:12.314Z,20.10
2018-09-06T08:37:40.175Z,20.20
2018-09-06T08:40:08.504Z,20.10
2018-09-06T08:42:36.412Z,20.10
2018-09-06T08:45:04.429Z,20.10
2018-09-06T08:47:32.291Z,20.30
2018-09-06T08:50:00.097Z,20.40
2018-09-06T08:52:28.141Z,20.50
2018-09-06T08:54:56.274Z,20.70
2018-09-06T08:57:24.234Z,20.80
2018-09-06T08:59:52.100Z,20.70
2018-09-06T09:02:20.388Z,20.50
2018-09-06T09:04:48.110Z,20.50
2018-09-06T09:07:16.034Z,20.30
2018-09-06T09:09:44.281Z,20.30
2018-09-06T09:12:12.372Z,20.40
2018-09-06T09:14:40.219Z,20.40
2018-09-06T09:17:08.320Z,20.50
2018-09-06T09:19:36.234Z,20.50
2018-09-06T09:22:04.246Z,20.40
2018-09-06T09:24:32.040Z,20.20
2018-09-06T09:26:59.878Z,20.20
2018-09-06T09:29:27.788Z,20.40
2018-09-06T09:31:56.076Z,20.50
2018-09-06T09:34:23.940Z,20.60
2018-09-06T09:36:51.814Z,20.60
2018-09-06T09:39:19.695Z,20.60
2018-09-06T09:41:47.586Z,20.70
2018-09-06T09:44:15.473Z,20.80
2018-09-06T09:49:11.736Z,20.90
2018-09-06T09:51:39.493Z,21.10
2018-09-06T09:54:07.646Z,21.40
2018-09-06T09:56:35.512Z,21.60
2018-09-06T09:59:03.405Z,21.60
2018-09-06T10:01:37.089Z,21.30
2018-09-06T10:04:10.549Z,21.20
2018-09-06T10:06:44.244Z,21.10
2018-09-06T10:09:19.374Z,21.20
2018-09-06T10:11:47.548Z,20.80
2018-09-06T10:14:15.711Z,20.50
2018-09-06T10:16:45.118Z,20.50
2018-09-06T10:19:13.094Z,20.60
2018-09-06T10:21:41.739Z,20.80
2018-09-06T10:24:09.777Z,21.00
2018-09-06T10:26:37.877Z,21.30
2018-09-06T10:29:05.726Z,21.70
2018-09-06T10:31:34.040Z,22.10
2018-09-06T10:34:01.901Z,21.90
2018-09-06T10:36:29.882Z,22.00
2018-09-06T10:38:57.828Z,21.90
2018-09-06T10:41:26.028Z,21.80
2018-09-06T10:43:54.168Z,22.10
2018-09-06T10:46:22.092Z,22.30
2018-09-06T10:48:50.339Z,22.40
2018-09-06T10:51:18.231Z,22.30
2018-09-06T10:53:46.181Z,22.50
2018-09-06T10:56:14.201Z,22.40
2018-09-06T10:58:42.095Z,22.10
2018-09-06T11:01:15.442Z,21.80
2018-09-06T11:03:43.408Z,21.70
2018-09-06T11:06:11.360Z,21.60
2018-09-06T11:08:39.347Z,21.60
2018-09-06T11:11:07.307Z,21.60
2018-09-06T11:13:35.176Z,21.70
2018-09-06T11:16:03.126Z,21.90
2018-09-06T11:18:31.016Z,22.20
2018-09-06T11:20:58.877Z,22.30
2018-09-06T11:23:26.696Z,22.20
2018-09-06T11:25:54.514Z,22.10
2018-09-06T11:28:22.418Z,22.20
2018-09-06T11:30:50.297Z,22.20
2018-09-06T11:33:18.356Z,22.10
2018-09-06T11:35:46.254Z,21.90
2018-09-06T11:38:14.070Z,21.80
2018-09-06T11:40:42.042Z,21.80
2018-09-06T11:43:09.958Z,21.80
2018-09-06T11:45:37.967Z,21.90
2018-09-06T11:48:05.867Z,22.40
2018-09-06T11:50:33.757Z,23.00
2018-09-06T11:53:01.658Z,23.30
2018-09-06T11:55:29.605Z,23.40
2018-09-06T11:57:57.464Z,23.70
2018-09-06T12:00:25.518Z,23.80
2018-09-06T12:02:53.473Z,23.50
2018-09-06T12:05:21.458Z,23.40
2018-09-06T12:07:49.784Z,23.20
2018-09-06T12:10:17.858Z,23.20
2018-09-06T12:12:45.820Z,23.60
2018-09-06T12:15:14.079Z,24.00
2018-09-06T12:17:41.955Z,23.90
2018-09-06T12:20:09.809Z,24.30
2018-09-06T12:22:38.061Z,24.00
2018-09-06T12:25:06.189Z,23.40
2018-09-06T12:27:34.252Z,23.30
2018-09-06T12:30:02.551Z,23.00
2018-09-06T12:32:30.569Z,22.60
2018-09-06T12:34:58.570Z,22.40
2018-09-06T12:37:26.587Z,22.10
2018-09-06T12:39:54.521Z,22.00
2018-09-06T12:42:22.399Z,22.30
2018-09-06T12:44:50.298Z,22.50
2018-09-06T12:47:18.182Z,22.30
2018-09-06T12:49:46.449Z,22.40
2018-09-06T12:52:14.662Z,23.00
2018-09-06T12:54:42.449Z,23.20
2018-09-06T12:57:10.306Z,23.10
2018-09-06T12:59:38.207Z,23.00
2018-09-06T13:02:06.114Z,23.00
2018-09-06T13:04:34.103Z,23.10
2018-09-06T13:07:02.328Z,23.30
2018-09-06T13:09:30.240Z,23.50
2018-09-06T13:11:58.214Z,23.60
2018-09-06T13:14:32.478Z,24.10
2018-09-06T13:17:00.436Z,23.90
2018-09-06T13:19:28.370Z,23.50
2018-09-06T13:21:56.685Z,23.40
2018-09-06T13:24:24.626Z,23.20
2018-09-06T13:26:52.493Z,23.00
2018-09-06T13:29:20.459Z,22.90
2018-09-06T13:31:48.432Z,22.60
2018-09-06T13:34:16.425Z,22.60
2018-09-06T13:36:44.649Z,22.40
2018-09-06T13:39:12.842Z,22.30
2018-09-06T13:41:40.963Z,22.30
2018-09-06T13:44:09.334Z,22.30
2018-09-06T13:46:37.213Z,22.40
2018-09-06T13:49:05.316Z,22.60
2018-09-06T13:51:33.517Z,22.70
2018-09-06T13:54:01.486Z,23.10
2018-09-06T13:56:29.399Z,23.20
2018-09-06T13:58:58.029Z,22.90
2018-09-06T14:01:26.385Z,22.40
2018-09-06T14:03:54.575Z,22.20
2018-09-06T14:06:23.309Z,22.60
2018-09-06T14:08:51.675Z,23.00
2018-09-06T14:11:20.164Z,23.10
2018-09-06T14:13:49.148Z,23.10
2018-09-06T14:16:17.866Z,23.20
2018-09-06T14:18:46.184Z,23.30
2018-09-06T14:21:14.980Z,23.50
2018-09-06T14:23:43.533Z,23.50
2018-09-06T14:26:12.051Z,23.50
2018-09-06T14:28:40.363Z,23.30
2018-09-06T14:31:08.620Z,23.20
2018-09-06T14:33:37.122Z,23.00
2018-09-06T14:36:06.106Z,23.10
2018-09-06T14:38:34.689Z,23.40
2018-09-06T14:41:10.094Z,23.50
2018-09-06T14:43:38.362Z,23.30
2018-09-06T14:46:06.854Z,23.00
2018-09-06T14:48:35.526Z,23.10
2018-09-06T14:51:04.040Z,22.80
2018-09-06T14:53:32.636Z,22.70
2018-09-06T14:56:01.474Z,23.00
2018-09-06T14:58:30.024Z,23.20
2018-09-06T15:00:58.693Z,23.40
2018-09-06T15:03:27.308Z,23.10
2018-09-06T15:05:55.770Z,22.60
2018-09-06T15:08:24.453Z,22.30
2018-09-06T15:10:53.165Z,22.10
2018-09-06T15:13:21.694Z,22.10
2018-09-06T15:15:49.946Z,22.10
2018-09-06T15:18:18.490Z,22.20
2018-09-06T15:20:46.895Z,22.20
2018-09-06T15:23:15.489Z,22.10
2018-09-06T15:25:43.947Z,22.00
2018-09-06T15:28:12.983Z,21.90
2018-09-06T15:30:41.366Z,22.10
2018-09-06T15:33:09.801Z,22.20
2018-09-06T15:35:38.288Z,22.10
2018-09-06T15:38:06.841Z,22.10
2018-09-06T15:40:35.262Z,22.10
2018-09-06T15:43:03.512Z,22.10
2018-09-06T15:45:31.827Z,22.10
2018-09-06T15:47:59.936Z,21.60
2018-09-06T15:50:28.048Z,21.60
2018-09-06T15:52:56.353Z,21.40
2018-09-06T15:55:24.820Z,21.20
2018-09-06T15:57:53.146Z,21.20
2018-09-06T16:00:21.316Z,21.30
2018-09-06T16:02:49.552Z,21.20
2018-09-06T16:05:18.796Z,21.10
2018-09-06T16:07:47.058Z,21.10
2018-09-06T16:10:15.382Z,21.00
2018-09-06T16:12:43.897Z,20.90
2018-09-06T16:15:12.236Z,20.90
2018-09-06T16:17:40.540Z,21.00
2018-09-06T16:20:08.750Z,21.10
2018-09-06T16:22:37.103Z,20.90
2018-09-06T16:25:05.530Z,20.90
2018-09-06T16:27:33.749Z,20.80
2018-09-06T16:30:02.279Z,20.70
2018-09-06T16:32:30.660Z,20.70
2018-09-06T16:34:58.953Z,20.70
2018-09-06T16:37:27.326Z,20.90
2018-09-06T16:39:55.942Z,21.00
2018-09-06T16:42:24.524Z,21.10
2018-09-06T16:44:52.897Z,21.10
2018-09-06T16:47:21.293Z,21.10
2018-09-06T16:49:49.591Z,21.10
2018-09-06T16:52:18.332Z,20.90
2018-09-06T16:54:46.627Z,20.80
2018-09-06T16:57:15.081Z,20.50
2018-09-06T16:59:43.637Z,20.40
2018-09-06T17:02:11.876Z,20.40
2018-09-06T17:04:40.642Z,20.30
2018-09-06T17:07:08.931Z,20.20
2018-09-06T17:09:37.289Z,20.10
2018-09-06T17:12:05.846Z,20.10
2018-09-06T17:14:34.282Z,20.00
2018-09-06T17:17:02.573Z,20.00
2018-09-06T17:19:30.959Z,20.00
2018-09-06T17:21:59.374Z,19.90
2018-09-06T17:24:27.789Z,19.80
2018-09-06T17:26:56.019Z,19.80
2018-09-06T17:29:24.260Z,19.90
2018-09-06T17:31:52.761Z,19.80
2018-09-06T17:34:21.513Z,19.70
2018-09-06T17:36:49.955Z,19.70
2018-09-06T17:39:18.596Z,19.60
2018-09-06T17:41:47.170Z,19.50
2018-09-06T17:44:15.624Z,19.50
2018-09-06T17:46:43.757Z,19.40
2018-09-06T17:49:12.381Z,19.50
2018-09-06T17:51:40.750Z,19.50
2018-09-06T17:54:08.952Z,19.50
2018-09-06T17:56:37.206Z,19.40
2018-09-06T17:59:06.144Z,19.30
2018-09-06T18:01:39.260Z,19.30
2018-09-06T18:04:07.683Z,19.30
2018-09-06T18:06:35.950Z,19.30
2018-09-06T18:09:07.411Z,19.30
2018-09-06T18:11:35.804Z,19.30
2018-09-06T18:14:04.170Z,19.30
2018-09-06T18:16:32.532Z,19.20
2018-09-06T18:19:01.249Z,19.10
2018-09-06T18:21:29.784Z,19.10
2018-09-06T18:23:58.432Z,19.00
2018-09-06T18:26:27.312Z,19.00
2018-09-06T18:28:55.963Z,19.00
2018-09-06T18:31:24.405Z,19.00
2018-09-06T18:33:52.718Z,18.90
2018-09-06T18:36:21.170Z,18.90
2018-09-06T18:38:50.266Z,18.80
2018-09-06T18:41:18.518Z,18.80
2018-09-06T18:43:46.881Z,18.80
2018-09-06T18:46:15.135Z,18.80
2018-09-06T18:48:43.522Z,18.90
2018-09-06T18:51:12.214Z,18.90
2018-09-06T18:53:41.461Z,18.90
2018-09-06T18:56:10.116Z,18.90
2018-09-06T18:58:38.613Z,18.90
2018-09-06T19:01:06.957Z,18.80
2018-09-06T19:03:35.025Z,18.80
2018-09-06T19:06:03.316Z,18.70
2018-09-06T19:08:31.883Z,18.80
2018-09-06T19:10:59.885Z,18.80
2018-09-06T19:13:27.979Z,18.80
2018-09-06T19:15:56.265Z,18.80
2018-09-06T19:18:24.447Z,18.70
2018-09-06T19:20:52.453Z,18.60
2018-09-06T19:23:20.477Z,18.60
2018-09-06T19:25:48.517Z,18.50
2018-09-06T19:28:16.582Z,18.40
2018-09-06T19:30:44.931Z,18.40
2018-09-06T19:33:13.170Z,18.40
2018-09-06T19:35:41.312Z,18.40
2018-09-06T19:38:09.532Z,18.30
2018-09-06T19:40:37.890Z,18.30
2018-09-06T19:43:06.330Z,18.40
2018-09-06T19:45:34.868Z,18.40
2018-09-06T19:48:03.250Z,18.50
2018-09-06T19:50:31.576Z,18.50
2018-09-06T19:53:00.062Z,18.50
2018-09-06T19:55:28.230Z,18.60
2018-09-06T19:57:56.630Z,18.60
2018-09-06T20:00:24.890Z,18.70
2018-09-06T20:02:53.179Z,18.60
2018-09-06T20:05:21.496Z,18.50
2018-09-06T20:07:50.157Z,18.50
2018-09-06T20:10:18.499Z,18.40
2018-09-06T20:12:47.024Z,18.40
2018-09-06T20:15:15.531Z,18.40
2018-09-06T20:17:43.963Z,18.30
2018-09-06T20:20:12.185Z,18.20
2018-09-06T20:22:40.442Z,18.20
2018-09-06T20:25:08.788Z,18.20
2018-09-06T20:27:37.162Z,18.20
2018-09-06T20:30:06.436Z,18.20
2018-09-06T20:32:34.761Z,18.20
2018-09-06T20:35:03.174Z,18.20
2018-09-06T20:37:31.717Z,18.10
2018-09-06T20:40:00.043Z,18.00
2018-09-06T20:42:28.446Z,17.90
2018-09-06T20:44:56.945Z,17.90
2018-09-06T20:47:25.277Z,17.80
2018-09-06T20:49:53.460Z,17.80
2018-09-06T20:52:22.109Z,17.80
2018-09-06T20:54:50.452Z,17.80
2018-09-06T20:57:18.867Z,17.70
2018-09-06T20:59:47.227Z,17.70
2018-09-06T21:02:23.725Z,17.70
2018-09-06T21:04:52.939Z,17.70
2018-09-06T21:07:21.492Z,17.60
2018-09-06T21:09:49.710Z,17.60
2018-09-06T21:12:18.360Z,17.60
2018-09-06T21:14:46.459Z,17.60
2018-09-06T21:17:14.912Z,17.50
2018-09-06T21:19:43.277Z,17.40
2018-09-06T21:22:11.575Z,17.40
2018-09-06T21:24:39.938Z,17.40
2018-09-06T21:27:08.625Z,17.30
2018-09-06T21:29:36.800Z,17.30
2018-09-06T21:32:05.541Z,17.30
2018-09-06T21:34:34.162Z,17.20
2018-09-06T21:37:02.450Z,17.10
2018-09-06T21:39:30.695Z,17.10
2018-09-06T21:41:59.442Z,17.10
2018-09-06T21:44:27.894Z,17.10
2018-09-06T21:46:56.258Z,17.10
2018-09-06T21:49:24.676Z,17.10
2018-09-06T21:51:52.864Z,17.10
2018-09-06T21:54:20.959Z,17.10
2018-09-06T21:56:49.341Z,17.00
2018-09-06T21:59:17.555Z,16.90
2018-09-06T22:01:45.832Z,16.80
2018-09-06T22:04:14.027Z,16.70
2018-09-06T22:06:42.196Z,16.60
2018-09-06T22:09:11.930Z,16.60
2018-09-06T22:11:40.245Z,16.50
2018-09-06T22:14:08.393Z,16.50
2018-09-06T22:16:36.383Z,16.40
2018-09-06T22:19:04.673Z,16.50
2018-09-06T22:21:32.921Z,16.50
2018-09-06T22:24:00.877Z,16.50
2018-09-06T22:26:29.096Z,16.50
2018-09-06T22:28:57.003Z,16.50
2018-09-06T22:31:25.039Z,16.40
2018-09-06T22:33:53.518Z,16.40
2018-09-06T22:36:21.492Z,16.30
2018-09-06T22:38:49.482Z,16.20
2018-09-06T22:41:17.851Z,16.20
2018-09-06T22:43:45.862Z,16.20
2018-09-06T22:46:13.920Z,16.10
2018-09-06T22:48:42.186Z,16.10
2018-09-06T22:51:10.122Z,16.00
2018-09-06T22:53:38.148Z,16.00
2018-09-06T22:56:06.736Z,15.90
2018-09-06T22:58:34.887Z,15.90
2018-09-06T23:01:03.147Z,15.90
2018-09-06T23:03:36.781Z,15.90
2018-09-06T23:06:05.068Z,15.90
2018-09-06T23:08:33.083Z,15.90
2018-09-06T23:11:01.366Z,15.90
2018-09-06T23:13:29.451Z,15.90
2018-09-06T23:15:57.636Z,15.80
2018-09-06T23:18:25.963Z,15.80
2018-09-06T23:20:54.011Z,15.80
2018-09-06T23:23:22.215Z,15.80
2018-09-06T23:25:50.212Z,15.80
2018-09-06T23:28:18.271Z,15.70
2018-09-06T23:30:46.362Z,15.70
2018-09-06T23:33:14.896Z,15.60
2018-09-06T23:35:44.588Z,15.60
2018-09-06T23:38:14.558Z,15.50
2018-09-06T23:40:48.285Z,15.50
2018-09-06T23:43:16.279Z,15.50
2018-09-06T23:45:44.339Z,15.50
2018-09-06T23:48:12.346Z,15.50
2018-09-06T23:50:40.566Z,15.50
2018-09-06T23:53:08.780Z,15.40
2018-09-06T23:55:37.076Z,15.40
2018-09-06T23:58:05.911Z,15.30
